Time;durP1;ratioP1;P1;durP2;ratioP2;P2;SDS_P1;SDS_P2;PMS_P1;PMS_P2;Temp;Humidity;BMP_temperature;BMP_pressure;BME280_temperature;BME280_humidity;BME280_pressure;Samples;Min_cycle;Max_cycle;Signal;HPM_P1;HPM_P2
2023/11/06 00:00:43;;;;;;;6.30;1.85;;;16.10;77.80;;;;;;10413121;28;20032;-56
2023/11/06 00:05:44;;;;;;;3.70;1.70;;;16.10;77.80;;;;;;10412567;28;20030;-56
2023/11/06 00:10:45;;;;;;;4.63;2.22;;;16.10;77.70;;;;;;10412807;28;20045;-56
2023/11/06 00:15:47;;;;;;;3.30;1.88;;;16.10;77.70;;;;;;10412143;28;20076;-56
2023/11/06 00:20:47;;;;;;;4.03;1.67;;;16.10;77.70;;;;;;10412336;28;20025;-56
2023/11/06 00:25:48;;;;;;;5.25;2.63;;;16.10;77.80;;;;;;10410272;28;20420;-56
2023/11/06 00:30:49;;;;;;;6.32;2.15;;;16.10;77.80;;;;;;10411861;28;20401;-56
2023/11/06 00:35:50;;;;;;;4.32;1.77;;;16.10;77.80;;;;;;10411424;28;20376;-56
2023/11/06 00:40:50;;;;;;;3.63;1.38;;;16.10;77.70;;;;;;10411140;28;20061;-56
2023/11/06 00:45:51;;;;;;;4.93;1.75;;;16.10;77.70;;;;;;10410784;28;20052;-56
2023/11/06 00:50:52;;;;;;;5.63;1.75;;;16.10;77.70;;;;;;10409706;28;20033;-56
2023/11/06 00:55:53;;;;;;;4.55;1.75;;;16.10;77.80;;;;;;10410713;28;20044;-56
2023/11/06 01:00:53;;;;;;;3.53;2.17;;;16.10;77.80;;;;;;10410731;28;20017;-56
2023/11/06 01:05:54;;;;;;;4.32;2.13;;;16.00;77.70;;;;;;10442134;28;20034;-56
2023/11/06 01:10:55;;;;;;;4.00;1.80;;;16.10;77.70;;;;;;10410330;28;20033;-56
2023/11/06 01:15:57;;;;;;;3.15;1.77;;;16.00;77.70;;;;;;10409811;28;20039;-56
2023/11/06 01:20:57;;;;;;;3.13;1.67;;;16.00;77.70;;;;;;10410195;28;20034;-56
2023/11/06 01:25:58;;;;;;;3.08;1.23;;;16.00;77.80;;;;;;10409080;28;20461;-56
2023/11/06 01:30:59;;;;;;;2.63;1.90;;;16.00;77.70;;;;;;10422239;28;20041;-56
2023/11/06 01:35:59;;;;;;;3.80;1.48;;;16.00;77.70;;;;;;10407760;28;20063;-56
2023/11/06 01:41:00;;;;;;;4.28;1.90;;;16.00;77.70;;;;;;10409265;28;20029;-56
2023/11/06 01:46:02;;;;;;;4.30;1.67;;;16.00;77.70;;;;;;10408540;28;20025;-56
2023/11/06 01:51:04;;;;;;;5.68;2.00;;;16.00;77.80;;;;;;10406747;28;20083;-56
2023/11/06 01:56:05;;;;;;;3.15;1.13;;;16.00;77.80;;;;;;10407479;28;20091;-56
2023/11/06 02:01:06;;;;;;;3.83;1.58;;;16.00;77.80;;;;;;10397482;28;20432;-55
2023/11/06 02:06:07;;;;;;;3.15;1.58;;;16.00;77.80;;;;;;10408679;28;20030;-56
2023/11/06 02:11:08;;;;;;;3.13;1.38;;;16.00;77.80;;;;;;10407175;28;20028;-57
2023/11/06 02:16:09;;;;;;;2.45;1.27;;;16.00;77.80;;;;;;10408616;28;20036;-56
2023/11/06 02:21:10;;;;;;;3.60;1.40;;;16.00;77.80;;;;;;10407690;28;20046;-56
2023/11/06 02:26:11;;;;;;;2.30;1.20;;;15.90;77.80;;;;;;10408203;28;20098;-56
2023/11/06 02:31:11;;;;;;;3.00;1.90;;;16.00;77.90;;;;;;10420565;28;20424;-56
2023/11/06 02:36:12;;;;;;;3.33;1.52;;;15.90;77.80;;;;;;10408057;28;20033;-56
2023/11/06 02:41:13;;;;;;;3.55;1.73;;;15.90;77.80;;;;;;10406261;28;20033;-56
2023/11/06 02:46:14;;;;;;;4.60;2.00;;;16.00;80.50;;;;;;10406685;28;20128;-56
2023/11/06 02:51:16;;;;;;;3.00;1.30;;;16.00;81.10;;;;;;10407259;28;20029;-56
2023/11/06 02:56:18;;;;;;;3.60;1.10;;;16.10;80.60;;;;;;10407687;28;20478;-56
2023/11/06 03:01:19;;;;;;;2.58;1.33;;;16.10;80.10;;;;;;10409434;28;20037;-58
2023/11/06 03:06:20;;;;;;;2.50;1.30;;;16.10;80.00;;;;;;10414904;28;20022;-58
2023/11/06 03:11:22;;;;;;;4.68;1.55;;;16.10;79.80;;;;;;10414567;28;20465;-58
2023/11/06 03:16:23;;;;;;;3.03;1.23;;;16.10;79.70;;;;;;10414874;28;20072;-58
2023/11/06 03:21:23;;;;;;;2.08;0.93;;;16.10;79.50;;;;;;10414091;28;20049;-58
2023/11/06 03:26:24;;;;;;;4.10;1.30;;;16.00;79.50;;;;;;10414297;28;20397;-58
2023/11/06 03:31:25;;;;;;;2.63;1.10;;;16.00;79.50;;;;;;10414433;28;20053;-57
2023/11/06 03:36:25;;;;;;;1.85;1.05;;;16.00;79.40;;;;;;10414262;28;20116;-57
2023/11/06 03:41:26;;;;;;;2.53;1.10;;;16.00;79.30;;;;;;10413449;28;20071;-58
2023/11/06 03:46:27;;;;;;;3.42;1.00;;;16.00;79.40;;;;;;10413362;28;20038;-57
2023/11/06 03:51:27;;;;;;;2.90;1.25;;;16.00;79.40;;;;;;10413401;28;20106;-58
2023/11/06 03:56:28;;;;;;;1.88;1.05;;;16.00;79.30;;;;;;10413245;28;20029;-58
2023/11/06 04:01:34;;;;;;;3.15;1.38;;;16.00;79.30;;;;;;10412876;28;20400;-58
2023/11/06 04:06:35;;;;;;;3.10;1.60;;;15.90;79.20;;;;;;10412855;28;20125;-58
2023/11/06 04:11:37;;;;;;;5.15;1.33;;;15.90;79.30;;;;;;10411702;28;20372;-58
2023/11/06 04:16:38;;;;;;;2.03;1.45;;;15.90;79.20;;;;;;10412069;28;20026;-58
2023/11/06 04:21:39;;;;;;;3.40;1.20;;;15.90;79.20;;;;;;10411736;28;20063;-57
2023/11/06 04:26:39;;;;;;;2.80;0.93;;;15.90;79.10;;;;;;10412150;28;20030;-58
2023/11/06 04:31:40;;;;;;;3.53;1.50;;;15.90;79.10;;;;;;10424758;28;20099;-58
2023/11/06 04:36:41;;;;;;;2.40;1.00;;;15.90;79.10;;;;;;10421416;28;20052;-58
2023/11/06 04:41:42;;;;;;;3.92;1.38;;;15.90;79.10;;;;;;10419081;28;20041;-58
2023/11/06 04:46:42;;;;;;;4.53;1.27;;;16.00;79.30;;;;;;10423161;28;20075;-58
2023/11/06 04:51:43;;;;;;;3.60;1.38;;;16.10;79.40;;;;;;10428386;28;20025;-58
2023/11/06 04:56:44;;;;;;;3.75;1.58;;;16.10;79.00;;;;;;10423725;28;20037;-58
2023/11/06 05:01:45;;;;;;;5.50;1.27;;;16.20;79.10;;;;;;10418750;28;20033;-58
2023/11/06 05:06:45;;;;;;;2.75;1.60;;;16.10;79.30;;;;;;10425736;28;20557;-58
2023/11/06 05:11:46;;;;;;;3.30;1.50;;;16.10;79.10;;;;;;10411490;28;20393;-58
2023/11/06 05:16:47;;;;;;;1.33;1.10;;;16.20;79.00;;;;;;10407172;28;20042;-58
2023/11/06 05:21:48;;;;;;;3.15;1.42;;;16.10;79.00;;;;;;10406103;28;20033;-58
2023/11/06 05:26:49;;;;;;;2.20;1.02;;;16.10;79.10;;;;;;10406972;28;20043;-58
2023/11/06 05:31:49;;;;;;;2.50;1.08;;;16.00;79.10;;;;;;10419325;28;20073;-58
2023/11/06 05:36:50;;;;;;;2.63;1.10;;;16.00;79.10;;;;;;10406262;28;20112;-56
2023/11/06 05:41:51;;;;;;;5.13;1.10;;;16.00;79.00;;;;;;10405993;28;20354;-56
2023/11/06 05:46:52;;;;;;;4.53;2.17;;;16.20;78.50;;;;;;10406568;28;20725;-56
2023/11/06 05:51:52;;;;;;;2.60;1.25;;;16.30;77.70;;;;;;10406469;28;20038;-58
2023/11/06 05:56:55;;;;;;;2.70;1.20;;;16.60;76.90;;;;;;10406401;28;20507;-58
2023/11/06 06:01:55;;;;;;;2.15;1.23;;;16.80;76.00;;;;;;10404392;28;20033;-57
2023/11/06 06:06:58;;;;;;;4.30;1.40;;;16.90;75.30;;;;;;10405194;28;20037;-58
2023/11/06 06:12:00;;;;;;;4.35;1.40;;;17.20;75.00;;;;;;10405988;28;20048;-58
2023/11/06 06:17:01;;;;;;;4.20;1.10;;;17.40;75.00;;;;;;10405620;28;20029;-58
2023/11/06 06:22:01;;;;;;;4.63;1.25;;;17.50;75.40;;;;;;10405535;28;20317;-58
2023/11/06 06:27:02;;;;;;;11.88;2.13;;;17.50;75.10;;;;;;10405262;28;20034;-57
2023/11/06 06:32:03;;;;;;;11.32;2.58;;;17.60;74.80;;;;;;10402404;28;20034;-57
2023/11/06 06:37:04;;;;;;;8.40;1.92;;;17.80;73.90;;;;;;10408400;28;20025;-58
2023/11/06 06:42:05;;;;;;;8.82;2.20;;;17.80;73.80;;;;;;10413874;28;20393;-58
2023/11/06 06:47:06;;;;;;;6.40;1.80;;;17.90;73.50;;;;;;10413581;28;20040;-58
2023/11/06 06:52:08;;;;;;;10.23;2.00;;;17.80;73.30;;;;;;10414177;28;20022;-58
2023/11/06 06:57:09;;;;;;;8.90;2.33;;;17.90;73.30;;;;;;10413399;28;20033;-59
2023/11/06 07:02:09;;;;;;;11.05;2.25;;;17.90;74.00;;;;;;10411643;28;20095;-58
2023/11/06 07:07:10;;;;;;;13.50;2.72;;;17.70;73.80;;;;;;10410746;28;20075;-58
2023/11/06 07:12:14;;;;;;;18.38;2.53;;;17.60;74.10;;;;;;10413461;28;20376;-58
2023/11/06 07:17:14;;;;;;;11.02;3.30;;;17.50;74.30;;;;;;10413861;28;20029;-58
2023/11/06 07:22:15;;;;;;;9.75;2.75;;;17.50;74.60;;;;;;10411019;28;20512;-58
2023/11/06 07:27:16;;;;;;;7.25;1.80;;;17.40;74.50;;;;;;10413589;28;20032;-58
2023/11/06 07:32:17;;;;;;;19.75;3.42;;;17.40;74.50;;;;;;10425525;28;20049;-57
2023/11/06 07:37:18;;;;;;;8.70;2.17;;;17.50;74.40;;;;;;10410712;28;20057;-56
2023/11/06 07:42:19;;;;;;;9.48;1.63;;;17.40;74.40;;;;;;10412248;28;20094;-58
2023/11/06 07:47:19;;;;;;;8.70;1.60;;;17.50;74.20;;;;;;10410149;28;20033;-58
2023/11/06 07:52:21;;;;;;;9.77;2.03;;;17.50;74.30;;;;;;10410084;28;20045;-58
2023/11/06 07:57:22;;;;;;;8.43;2.50;;;17.40;74.40;;;;;;10410968;28;20559;-57
2023/11/06 08:02:22;;;;;;;8.45;2.28;;;17.50;74.20;;;;;;10411820;28;20029;-58
2023/11/06 08:07:23;;;;;;;6.25;2.00;;;17.50;74.10;;;;;;10409826;28;20025;-58
2023/11/06 08:12:24;;;;;;;8.77;1.73;;;17.30;74.30;;;;;;10411517;28;20380;-58
2023/11/06 08:17:24;;;;;;;6.68;1.95;;;17.40;74.30;;;;;;10410447;28;20048;-58
2023/11/06 08:22:26;;;;;;;5.85;1.52;;;17.50;74.20;;;;;;10410406;28;20037;-58
2023/11/06 08:27:27;;;;;;;7.20;2.20;;;17.30;74.80;;;;;;10410375;28;20448;-58
2023/11/06 08:32:27;;;;;;;6.82;1.42;;;17.20;75.50;;;;;;10409382;28;20069;-58
2023/11/06 08:37:28;;;;;;;7.05;1.35;;;17.20;75.10;;;;;;10409985;28;20115;-58
2023/11/06 08:42:29;;;;;;;5.22;1.58;;;17.10;76.00;;;;;;10408934;28;20041;-58
2023/11/06 08:47:29;;;;;;;4.22;1.92;;;17.00;76.80;;;;;;10408211;28;20036;-58
2023/11/06 08:52:30;;;;;;;5.20;2.17;;;16.90;76.80;;;;;;10409071;28;20029;-58
2023/11/06 08:57:31;;;;;;;4.97;1.20;;;16.90;76.90;;;;;;10407741;28;20033;-58
2023/11/06 09:02:32;;;;;;;5.65;1.80;;;16.90;76.50;;;;;;10408575;28;20047;-58
2023/11/06 09:07:32;;;;;;;4.55;1.58;;;16.90;76.40;;;;;;10407839;28;20493;-58
2023/11/06 09:12:33;;;;;;;5.93;2.20;;;16.90;76.20;;;;;;10406804;28;20029;-58
2023/11/06 09:17:34;;;;;;;4.28;1.33;;;17.00;75.50;;;;;;10409001;28;20042;-58
2023/11/06 09:22:35;;;;;;;6.28;1.40;;;17.10;75.30;;;;;;10407903;28;20388;-58
2023/11/06 09:27:36;;;;;;;3.15;1.45;;;17.00;76.40;;;;;;10407096;28;20059;-58
2023/11/06 09:32:36;;;;;;;2.47;1.10;;;16.90;76.90;;;;;;10420176;28;20045;-58
2023/11/06 09:37:37;;;;;;;3.22;1.27;;;16.90;77.00;;;;;;10407572;28;20104;-58
2023/11/06 09:42:38;;;;;;;4.72;1.35;;;16.80;77.10;;;;;;10406616;28;20033;-57
2023/11/06 09:47:51;;;;;;;4.30;1.30;;;16.80;77.10;;;;;;10407001;28;20041;-58
2023/11/06 09:52:53;;;;;;;4.05;0.95;;;16.80;77.20;;;;;;10406903;28;20155;-58
2023/11/06 09:57:55;;;;;;;4.25;1.20;;;16.80;77.30;;;;;;10404333;28;20116;-58
2023/11/06 10:02:56;;;;;;;4.53;1.20;;;16.80;77.30;;;;;;10407118;28;20658;-58
2023/11/06 10:07:58;;;;;;;4.20;1.13;;;16.70;77.30;;;;;;10406733;28;20045;-58
2023/11/06 10:13:05;;;;;;;3.63;1.75;;;16.80;77.40;;;;;;10406316;28;20022;-58
2023/11/06 10:18:18;;;;;;;4.03;1.42;;;16.80;77.40;;;;;;10405490;28;20050;-58
2023/11/06 10:23:30;;;;;;;5.55;1.80;;;16.80;77.30;;;;;;10404919;28;20026;-58
2023/11/06 10:28:32;;;;;;;6.82;1.02;;;16.70;77.40;;;;;;10408172;28;20104;-58
2023/11/06 10:33:33;;;;;;;2.83;0.85;;;16.70;77.40;;;;;;10404692;28;20103;-58
2023/11/06 10:38:34;;;;;;;5.22;1.58;;;16.80;77.40;;;;;;10407061;28;20075;-58
2023/11/06 10:43:35;;;;;;;4.40;1.02;;;16.70;77.40;;;;;;10406852;28;20030;-58
2023/11/06 10:48:46;;;;;;;7.13;1.30;;;16.70;77.30;;;;;;10404570;28;20026;-59
2023/11/06 10:53:49;;;;;;;3.03;1.00;;;16.70;77.40;;;;;;10404556;28;20041;-58
2023/11/06 10:58:54;;;;;;;1.58;1.00;;;16.70;77.40;;;;;;10406946;28;20524;-58
2023/11/06 11:03:58;;;;;;;2.65;1.20;;;16.70;77.40;;;;;;10403465;28;20112;-58
2023/11/06 11:08:59;;;;;;;3.20;1.48;;;16.60;77.30;;;;;;10404537;28;20030;-58
2023/11/06 11:14:00;;;;;;;2.88;0.82;;;16.60;77.40;;;;;;10403614;28;20063;-58
2023/11/06 11:19:01;;;;;;;4.20;0.95;;;16.60;77.40;;;;;;10405330;28;20366;-58
2023/11/06 11:24:01;;;;;;;3.17;1.23;;;16.60;77.40;;;;;;10409481;28;20076;-58
2023/11/06 11:29:09;;;;;;;4.50;0.90;;;16.60;77.50;;;;;;10418785;28;20037;-58
2023/11/06 11:34:36;;;;;;;3.28;1.10;;;16.60;77.60;;;;;;10417727;28;20047;-58
2023/11/06 11:39:51;;;;;;;2.08;1.00;;;16.60;77.50;;;;;;10410235;28;20084;-58
2023/11/06 11:44:59;;;;;;;1.88;0.95;;;16.50;77.50;;;;;;10412580;28;20029;-58
2023/11/06 11:50:01;;;;;;;2.28;1.10;;;16.50;78.10;;;;;;10410611;28;20076;-57
2023/11/06 11:55:39;;;;;;;3.30;1.10;;;16.50;77.50;;;;;;10411461;28;20022;-58
2023/11/06 12:00:44;;;;;;;2.92;0.80;;;16.50;77.50;;;;;;10412390;28;20053;-58
2023/11/06 12:05:55;;;;;;;5.03;1.55;;;16.50;77.20;;;;;;10410818;28;20038;-58
2023/11/06 12:10:56;;;;;;;5.72;1.40;;;16.50;76.90;;;;;;10411260;28;20087;-58
2023/11/06 12:16:04;;;;;;;1.25;0.75;;;16.70;76.40;;;;;;10411022;28;20036;-58
2023/11/06 12:21:05;;;;;;;3.10;1.15;;;16.70;76.00;;;;;;10409738;28;20045;-58
2023/11/06 12:26:10;;;;;;;2.70;1.25;;;16.80;75.90;;;;;;10410224;28;20112;-58
2023/11/06 12:31:12;;;;;;;2.30;0.95;;;16.90;75.20;;;;;;10411167;28;20463;-58
2023/11/06 12:36:31;;;;;;;3.67;0.80;;;17.00;75.30;;;;;;10409774;28;20113;-58
2023/11/06 12:41:31;;;;;;;2.05;1.05;;;17.00;75.10;;;;;;10411135;28;20044;-57
2023/11/06 12:46:44;;;;;;;1.90;0.80;;;16.90;75.20;;;;;;10410410;28;20038;-57
2023/11/06 12:51:47;;;;;;;3.78;1.23;;;16.90;75.30;;;;;;10408829;28;20036;-58
2023/11/06 12:56:47;;;;;;;3.25;1.30;;;16.80;76.00;;;;;;10409458;28;20116;-59
2023/11/06 13:01:48;;;;;;;2.28;0.95;;;16.70;76.00;;;;;;10409879;28;20408;-59
2023/11/06 13:06:49;;;;;;;3.00;0.93;;;16.70;75.80;;;;;;10408909;28;20037;-58
2023/11/06 13:11:49;;;;;;;2.05;0.70;;;16.80;75.70;;;;;;10409662;28;20032;-59
2023/11/06 13:16:50;;;;;;;3.00;1.42;;;16.80;75.30;;;;;;10409108;28;20025;-58
2023/11/06 13:21:52;;;;;;;1.83;0.90;;;16.90;75.10;;;;;;10409368;28;20025;-57
2023/11/06 13:26:53;;;;;;;1.42;0.65;;;16.90;75.20;;;;;;10408742;28;20037;-59
2023/11/06 13:31:54;;;;;;;1.95;0.95;;;16.90;75.10;;;;;;10408577;28;20072;-59
2023/11/06 13:36:56;;;;;;;2.15;0.90;;;17.00;74.80;;;;;;10408652;28;20391;-59
2023/11/06 13:41:59;;;;;;;3.38;1.67;;;17.00;74.70;;;;;;10406940;28;20047;-59
2023/11/06 13:46:59;;;;;;;2.30;0.90;;;16.90;75.00;;;;;;10407363;28;20026;-59
2023/11/06 13:52:19;;;;;;;3.97;1.02;;;16.90;75.30;;;;;;10408218;28;20025;-58
2023/11/06 13:57:23;;;;;;;;;;;17.00;75.30;;;;;;10405635;28;20033;-58
2023/11/06 14:02:25;;;;;;;2.17;0.88;;;17.10;75.30;;;;;;10405377;28;19948;-57
2023/11/06 14:07:26;;;;;;;1.70;0.85;;;17.10;75.50;;;;;;10408077;28;20120;-58
2023/11/06 14:12:27;;;;;;;1.88;0.90;;;17.10;75.40;;;;;;10407988;28;20104;-58
2023/11/06 14:17:29;;;;;;;2.60;1.00;;;17.00;75.50;;;;;;10406968;28;20021;-58
2023/11/06 14:22:30;;;;;;;4.43;1.08;;;17.00;75.50;;;;;;10407212;28;20465;-58
2023/11/06 14:27:32;;;;;;;3.50;1.02;;;17.00;75.60;;;;;;10405802;28;20022;-58
2023/11/06 14:32:33;;;;;;;3.50;1.02;;;16.90;75.70;;;;;;10408047;28;20144;-56
2023/11/06 14:37:37;;;;;;;1.98;0.80;;;16.90;75.80;;;;;;10407549;28;20192;-57
2023/11/06 14:42:39;;;;;;;3.38;1.17;;;16.90;75.90;;;;;;10408272;28;20113;-58
2023/11/06 14:47:40;;;;;;;2.65;0.90;;;16.90;75.90;;;;;;10407423;28;20033;-57
2023/11/06 14:52:41;;;;;;;2.35;0.82;;;16.80;76.00;;;;;;10407391;28;20137;-59
2023/11/06 14:57:42;;;;;;;1.58;0.90;;;16.90;76.10;;;;;;10409192;28;20033;-58
2023/11/06 15:02:44;;;;;;;1.20;0.77;;;16.80;76.10;;;;;;10414682;28;20033;-57
2023/11/06 15:07:49;;;;;;;4.22;2.63;;;16.80;76.20;;;;;;10413802;28;20523;-57
2023/11/06 15:12:50;;;;;;;1.40;0.80;;;16.80;76.00;;;;;;10414120;28;20072;-57
2023/11/06 15:17:54;;;;;;;2.13;1.38;;;16.90;76.10;;;;;;10413852;28;20037;-58
2023/11/06 15:22:55;;;;;;;2.33;0.70;;;16.90;75.70;;;;;;10414431;28;20037;-59
2023/11/06 15:27:56;;;;;;;6.78;1.98;;;16.90;75.80;;;;;;10412808;28;20030;-59
2023/11/06 15:32:57;;;;;;;7.50;2.55;;;16.90;76.30;;;;;;10426486;28;20370;-61
2023/11/06 15:37:58;;;;;;;4.13;1.27;;;17.00;75.60;;;;;;10413748;28;20029;-60
2023/11/06 15:42:58;;;;;;;2.67;2.00;;;17.00;75.20;;;;;;10413410;28;20039;-60
2023/11/06 15:48:01;;;;;;;2.80;1.55;;;17.10;74.90;;;;;;10412548;28;20196;-61
2023/11/06 15:53:02;;;;;;;6.65;1.80;;;17.00;74.90;;;;;;10412411;28;20036;-61
2023/11/06 15:58:02;;;;;;;2.22;1.20;;;17.00;74.90;;;;;;10412107;28;20056;-61
2023/11/06 16:03:04;;;;;;;3.35;1.30;;;16.90;75.00;;;;;;10411449;28;20469;-61
2023/11/06 16:08:04;;;;;;;3.40;1.35;;;16.90;75.10;;;;;;10410184;28;20489;-61
2023/11/06 16:13:05;;;;;;;3.00;1.02;;;16.90;75.10;;;;;;10410597;28;20040;-59
2023/11/06 16:18:06;;;;;;;4.43;1.70;;;17.00;74.80;;;;;;10411815;28;20029;-61
2023/11/06 16:23:07;;;;;;;1.83;1.08;;;17.00;74.70;;;;;;10410968;28;20428;-61
2023/11/06 16:28:09;;;;;;;3.47;1.20;;;16.90;74.70;;;;;;10410780;28;20061;-60
2023/11/06 16:33:11;;;;;;;4.93;1.30;;;16.90;74.50;;;;;;10411547;28;20053;-60
2023/11/06 16:38:12;;;;;;;2.35;0.90;;;17.10;74.20;;;;;;10408806;28;20029;-61
2023/11/06 16:43:12;;;;;;;2.92;1.20;;;17.10;74.00;;;;;;10409513;28;20440;-60
2023/11/06 16:48:13;;;;;;;2.35;1.20;;;17.00;74.10;;;;;;10409046;28;20029;-60
2023/11/06 16:53:14;;;;;;;1.80;1.10;;;17.00;74.10;;;;;;10408556;28;20025;-61
2023/11/06 16:58:14;;;;;;;3.00;2.13;;;17.00;73.90;;;;;;10407789;28;20037;-60
2023/11/06 17:03:15;;;;;;;1.50;0.80;;;17.10;73.70;;;;;;10407803;28;20040;-61
2023/11/06 17:08:16;;;;;;;3.13;1.05;;;17.10;73.80;;;;;;10407144;28;20021;-61
2023/11/06 17:13:17;;;;;;;2.15;0.90;;;17.00;73.90;;;;;;10389996;28;20026;-60
2023/11/06 17:18:20;;;;;;;2.15;1.00;;;17.00;74.10;;;;;;10405528;28;20358;-61
2023/11/06 17:23:20;;;;;;;2.15;0.98;;;16.90;74.20;;;;;;10406026;28;20037;-60
2023/11/06 17:28:23;;;;;;;2.67;0.95;;;16.90;74.20;;;;;;10406580;28;20034;-61
2023/11/06 17:33:23;;;;;;;3.33;1.10;;;17.00;73.80;;;;;;10418760;28;20590;-61
2023/11/06 17:38:25;;;;;;;3.35;1.20;;;17.10;74.20;;;;;;10405654;28;20167;-60
2023/11/06 17:43:26;;;;;;;4.35;1.30;;;17.10;73.50;;;;;;10410219;28;20025;-60
2023/11/06 17:48:26;;;;;;;10.85;1.70;;;17.20;73.40;;;;;;10408293;28;20364;-59
2023/11/06 17:53:28;;;;;;;16.38;2.33;;;17.60;73.30;;;;;;10408572;28;20017;-59
2023/11/06 17:58:29;;;;;;;18.48;2.72;;;17.70;73.80;;;;;;10407042;28;20511;-56
2023/11/06 18:03:35;;;;;;;13.05;2.25;;;17.80;75.40;;;;;;10405717;28;20029;-56
2023/11/06 18:08:36;;;;;;;13.70;2.45;;;17.70;75.30;;;;;;10406064;28;20072;-57
2023/11/06 18:13:37;;;;;;;11.27;2.20;;;17.50;75.50;;;;;;10405745;28;20493;-58
2023/11/06 18:18:38;;;;;;;9.10;2.20;;;17.30;75.30;;;;;;10405666;28;20022;-58
2023/11/06 18:23:39;;;;;;;10.63;2.13;;;17.20;75.70;;;;;;10405440;28;20431;-59
2023/11/06 18:28:40;;;;;;;7.00;2.35;;;17.10;75.80;;;;;;10405545;28;20029;-58
2023/11/06 18:33:41;;;;;;;13.52;2.72;;;17.00;76.50;;;;;;10409719;28;20032;-59
2023/11/06 18:38:41;;;;;;;7.95;1.60;;;17.00;76.00;;;;;;10413158;28;20030;-58
2023/11/06 18:43:42;;;;;;;9.23;2.50;;;16.90;76.10;;;;;;10413552;28;20033;-57
2023/11/06 18:48:43;;;;;;;4.88;1.70;;;16.90;76.10;;;;;;10411836;28;20044;-58
2023/11/06 18:53:45;;;;;;;9.77;2.08;;;16.90;76.10;;;;;;10412736;28;20062;-58
2023/11/06 18:58:45;;;;;;;8.63;1.60;;;16.80;76.10;;;;;;10413002;28;20025;-59
2023/11/06 19:03:46;;;;;;;4.65;1.77;;;16.80;76.10;;;;;;10412093;28;20030;-57
2023/11/06 19:08:47;;;;;;;8.10;1.73;;;16.80;76.00;;;;;;10412853;28;20396;-57
2023/11/06 19:13:47;;;;;;;5.13;1.50;;;16.80;75.80;;;;;;10411786;28;20127;-58
2023/11/06 19:18:50;;;;;;;10.55;2.30;;;16.90;75.60;;;;;;10411842;28;20021;-58
2023/11/06 19:23:50;;;;;;;3.97;1.67;;;17.10;75.50;;;;;;10411622;28;20129;-58
2023/11/06 19:28:51;;;;;;;7.32;1.50;;;17.20;75.60;;;;;;10448569;28;20368;-57
2023/11/06 19:33:52;;;;;;;4.88;1.48;;;17.10;75.30;;;;;;10419593;28;20039;-58
2023/11/06 19:38:53;;;;;;;7.50;1.27;;;17.10;75.40;;;;;;10411653;28;20033;-59
2023/11/06 19:43:54;;;;;;;5.97;1.30;;;17.10;75.90;;;;;;10417947;28;20492;-58
2023/11/06 19:48:55;;;;;;;6.90;1.63;;;17.00;76.00;;;;;;10418863;28;20037;-57
2023/11/06 19:53:55;;;;;;;4.40;1.35;;;17.00;76.10;;;;;;10420215;28;20377;-57
2023/11/06 19:58:57;;;;;;;4.00;1.42;;;16.90;75.90;;;;;;10423259;28;20055;-58
2023/11/06 20:03:58;;;;;;;3.63;1.40;;;17.00;75.90;;;;;;10411887;28;20037;-57
2023/11/06 20:08:59;;;;;;;4.15;2.00;;;16.90;75.90;;;;;;10424213;28;20049;-58
2023/11/06 20:14:00;;;;;;;3.72;1.67;;;16.90;76.10;;;;;;10417142;28;20025;-58
2023/11/06 20:19:00;;;;;;;5.38;1.75;;;16.80;76.00;;;;;;10427742;28;20025;-58
2023/11/06 20:24:02;;;;;;;2.72;1.38;;;16.70;76.20;;;;;;10467499;28;20021;-58
2023/11/06 20:29:04;;;;;;;3.22;1.30;;;16.70;76.30;;;;;;10420774;28;20037;-57
2023/11/06 20:34:05;;;;;;;2.88;1.33;;;16.70;76.40;;;;;;10418601;28;20014;-58
2023/11/06 20:39:05;;;;;;;4.57;1.60;;;16.70;76.50;;;;;;10412056;28;20567;-58
2023/11/06 20:44:06;;;;;;;3.65;1.70;;;16.60;76.60;;;;;;10411173;28;20041;-58
2023/11/06 20:49:07;;;;;;;14.70;2.70;;;16.60;76.60;;;;;;10411798;28;20477;-58
2023/11/06 20:54:08;;;;;;;3.63;1.20;;;16.60;76.70;;;;;;10410188;28;20074;-58
2023/11/06 20:59:09;;;;;;;2.85;1.40;;;16.60;76.80;;;;;;10409572;28;20033;-58
2023/11/06 21:04:09;;;;;;;2.15;0.95;;;16.50;76.80;;;;;;10410571;28;20034;-58
2023/11/06 21:09:10;;;;;;;4.10;1.20;;;16.50;76.80;;;;;;10408704;28;20021;-57
2023/11/06 21:14:12;;;;;;;3.72;1.23;;;16.50;76.90;;;;;;10408885;28;20029;-58
2023/11/06 21:19:13;;;;;;;2.63;1.20;;;16.50;77.00;;;;;;10410151;28;20029;-58
2023/11/06 21:24:14;;;;;;;3.28;1.10;;;16.40;76.90;;;;;;10409848;28;20575;-58
2023/11/06 21:29:15;;;;;;;3.03;2.03;;;16.40;77.00;;;;;;10417127;28;20710;-57
2023/11/06 21:34:15;;;;;;;3.10;1.30;;;16.40;77.10;;;;;;10413403;28;20029;-58
2023/11/06 21:39:16;;;;;;;1.98;0.88;;;16.30;77.20;;;;;;10409721;28;20033;-58
2023/11/06 21:44:19;;;;;;;2.25;1.20;;;16.30;77.30;;;;;;10409240;28;20369;-58
2023/11/06 21:49:19;;;;;;;2.47;1.13;;;16.30;77.30;;;;;;10409559;28;20087;-58
2023/11/06 21:54:20;;;;;;;2.75;1.50;;;16.30;77.30;;;;;;10407373;28;20063;-59
2023/11/06 21:59:21;;;;;;;4.45;1.42;;;16.30;77.20;;;;;;10408923;28;20029;-58
2023/11/06 22:04:22;;;;;;;2.63;1.15;;;16.20;77.20;;;;;;10408631;28;20497;-58
2023/11/06 22:09:22;;;;;;;2.92;1.02;;;16.20;77.20;;;;;;10408425;28;20500;-58
2023/11/06 22:14:23;;;;;;;1.75;0.95;;;16.20;77.20;;;;;;10408187;28;20036;-59
2023/11/06 22:19:24;;;;;;;2.08;1.38;;;16.20;77.20;;;;;;10407293;28;20025;-58
2023/11/06 22:24:25;;;;;;;3.53;1.52;;;16.20;77.20;;;;;;10406578;28;20534;-58
2023/11/06 22:29:26;;;;;;;3.05;0.88;;;16.20;77.20;;;;;;10407678;28;20090;-57
2023/11/06 22:34:27;;;;;;;3.72;1.40;;;16.20;77.20;;;;;;10408043;28;20456;-58
2023/11/06 22:39:28;;;;;;;2.50;0.77;;;16.20;77.20;;;;;;10408048;28;20095;-58
2023/11/06 22:44:29;;;;;;;2.10;1.10;;;16.20;77.30;;;;;;10408049;28;20610;-58
2023/11/06 22:49:29;;;;;;;3.08;1.30;;;16.10;77.10;;;;;;10407445;28;20029;-58
2023/11/06 22:54:30;;;;;;;1.58;0.80;;;16.10;77.10;;;;;;10407710;28;20064;-58
2023/11/06 22:59:31;;;;;;;2.50;0.95;;;16.10;77.20;;;;;;10407927;28;20025;-58
2023/11/06 23:04:32;;;;;;;2.80;1.52;;;16.10;77.20;;;;;;10407108;28;20037;-58
2023/11/06 23:09:33;;;;;;;2.90;0.80;;;16.10;77.20;;;;;;10406197;28;20583;-58
2023/11/06 23:14:34;;;;;;;1.38;0.85;;;16.10;77.20;;;;;;10407101;28;20030;-58
2023/11/06 23:19:35;;;;;;;3.08;1.10;;;16.00;77.20;;;;;;10411923;28;20667;-57
2023/11/06 23:24:36;;;;;;;1.65;1.00;;;16.10;77.30;;;;;;10414405;28;20025;-58
2023/11/06 23:29:37;;;;;;;3.15;1.23;;;16.10;77.40;;;;;;10424886;28;20045;-58
2023/11/06 23:34:42;;;;;;;2.55;1.10;;;16.10;77.40;;;;;;10416977;28;20465;-58
2023/11/06 23:39:43;;;;;;;1.67;0.70;;;16.10;77.40;;;;;;10414136;28;20033;-58
2023/11/06 23:44:44;;;;;;;6.03;1.20;;;16.00;77.30;;;;;;10413852;28;20049;-58
2023/11/06 23:49:45;;;;;;;2.45;0.98;;;16.00;77.30;;;;;;10413863;28;20029;-58
2023/11/06 23:54:46;;;;;;;2.55;1.08;;;16.00;77.30;;;;;;10412116;28;20478;-58
2023/11/06 23:59:47;;;;;;;2.47;0.95;;;16.00;77.20;;;;;;10413372;28;20039;-58
